Time;durP1;ratioP1;P1;durP2;ratioP2;P2;SDS_P1;SDS_P2;PMS_P1;PMS_P2;Temp;Humidity;BMP_temperature;BMP_pressure;BME280_temperature;BME280_humidity;BME280_pressure;Samples;Min_cycle;Max_cycle;Signal;HPM_P1;HPM_P2
2021/05/08 00:01:52;;;;;;;26.63;24.27;;;2.00;99.90;;;;;;5066397;28;20457;-72
2021/05/08 00:04:20;;;;;;;27.87;25.30;;;1.90;99.90;;;;;;5062490;28;20469;-73
2021/05/08 00:06:46;;;;;;;26.70;24.50;;;1.90;99.90;;;;;;5057223;28;20466;-74
2021/05/08 00:09:14;;;;;;;27.10;24.60;;;1.90;99.90;;;;;;5060835;28;20466;-73
2021/05/08 00:11:41;;;;;;;26.23;23.93;;;1.90;99.90;;;;;;5060549;28;20854;-72
2021/05/08 00:14:08;;;;;;;25.37;23.33;;;1.90;99.90;;;;;;5063288;28;20466;-73
2021/05/08 00:16:34;;;;;;;26.87;24.47;;;1.90;99.90;;;;;;5062842;28;20617;-72
2021/05/08 00:19:01;;;;;;;27.57;25.17;;;1.90;99.90;;;;;;5062922;28;20889;-72
2021/05/08 00:21:29;;;;;;;27.83;25.40;;;1.80;99.90;;;;;;5063933;28;20479;-72
2021/05/08 00:23:55;;;;;;;28.17;25.47;;;1.80;99.90;;;;;;5065115;28;20818;-74
2021/05/08 00:26:22;;;;;;;26.60;24.20;;;1.70;99.90;;;;;;5061502;28;20476;-74
2021/05/08 00:28:49;;;;;;;26.27;24.07;;;1.60;99.90;;;;;;5063564;28;20466;-74
2021/05/08 00:31:15;;;;;;;27.57;25.30;;;1.50;99.90;;;;;;5057844;28;20475;-72
2021/05/08 00:33:42;;;;;;;26.30;23.70;;;1.50;99.90;;;;;;5061358;28;20521;-73
2021/05/08 00:36:09;;;;;;;26.50;24.20;;;1.50;99.90;;;;;;5063558;28;20544;-72
2021/05/08 00:38:35;;;;;;;27.40;25.03;;;1.50;99.90;;;;;;5061643;28;20576;-72
2021/05/08 00:41:02;;;;;;;26.67;24.47;;;1.40;99.90;;;;;;5062788;28;20455;-72
2021/05/08 00:43:28;;;;;;;25.80;23.33;;;1.40;99.90;;;;;;5062558;28;20549;-74
2021/05/08 00:45:56;;;;;;;26.27;24.10;;;1.40;99.90;;;;;;5062352;28;20466;-72
2021/05/08 00:48:22;;;;;;;26.30;23.80;;;1.40;99.90;;;;;;5064745;28;21020;-73
2021/05/08 00:50:50;;;;;;;26.00;23.80;;;1.30;99.90;;;;;;5062952;28;20523;-73
2021/05/08 00:53:16;;;;;;;26.60;24.30;;;1.40;99.90;;;;;;5058544;28;20473;-73
2021/05/08 00:55:43;;;;;;;26.97;24.77;;;1.40;99.90;;;;;;5061398;28;20989;-72
2021/05/08 00:58:09;;;;;;;25.77;23.63;;;1.30;99.90;;;;;;5061435;28;20498;-74
2021/05/08 01:00:38;;;;;;;26.37;24.17;;;1.20;99.90;;;;;;5056475;28;20467;-74
2021/05/08 01:03:06;;;;;;;26.83;24.60;;;1.20;99.90;;;;;;5060387;28;20509;-73
2021/05/08 01:05:33;;;;;;;26.63;24.37;;;1.20;99.90;;;;;;5057131;28;20494;-73
2021/05/08 01:08:01;;;;;;;26.43;24.10;;;1.20;99.90;;;;;;5063691;28;20461;-73
2021/05/08 01:10:30;;;;;;;25.30;23.30;;;1.20;99.90;;;;;;5055470;28;20833;-73
2021/05/08 01:12:58;;;;;;;27.10;24.70;;;1.20;99.90;;;;;;5063076;28;20469;-71
2021/05/08 01:15:25;;;;;;;25.77;23.37;;;1.20;99.90;;;;;;5064071;28;20461;-73
2021/05/08 01:17:52;;;;;;;27.17;24.87;;;1.20;99.90;;;;;;5061004;28;21134;-72
2021/05/08 01:20:20;;;;;;;27.97;25.60;;;1.10;99.90;;;;;;5054916;28;20807;-71
2021/05/08 01:22:49;;;;;;;27.40;24.90;;;1.20;99.90;;;;;;5062000;28;20508;-73
2021/05/08 01:25:19;;;;;;;27.73;24.20;;;1.20;99.90;;;;;;5052360;28;20993;-73
2021/05/08 01:27:48;;;;;;;24.90;22.80;;;1.20;99.90;;;;;;5062381;28;20466;-72
2021/05/08 01:30:16;;;;;;;27.87;24.87;;;1.10;99.90;;;;;;5063318;28;20579;-72
2021/05/08 01:32:46;;;;;;;29.13;25.03;;;1.20;99.90;;;;;;5058047;28;20469;-72
2021/05/08 01:35:13;;;;;;;37.60;23.50;;;1.20;99.90;;;;;;5055534;28;20482;-74
2021/05/08 01:37:41;;;;;;;25.57;23.63;;;1.10;99.90;;;;;;5062726;28;20481;-74
2021/05/08 01:40:11;;;;;;;28.83;25.60;;;1.10;99.90;;;;;;5057897;28;20462;-71
2021/05/08 01:42:40;;;;;;;29.30;26.40;;;1.10;99.90;;;;;;5056495;28;20950;-73
2021/05/08 01:45:10;;;;;;;26.57;23.97;;;1.10;99.90;;;;;;5062757;28;20483;-71
2021/05/08 01:47:37;;;;;;;39.20;25.70;;;1.20;99.90;;;;;;5055020;28;20505;-72
2021/05/08 01:50:05;;;;;;;30.60;24.57;;;1.30;99.90;;;;;;5062109;28;20534;-73
2021/05/08 01:52:31;;;;;;;26.83;24.33;;;1.40;99.90;;;;;;5056937;28;20482;-71
2021/05/08 01:54:58;;;;;;;28.20;25.73;;;1.40;99.90;;;;;;5057320;28;20956;-72
2021/05/08 01:57:26;;;;;;;28.40;25.43;;;1.40;99.90;;;;;;5059013;28;20680;-71
2021/05/08 01:59:53;;;;;;;28.30;25.90;;;1.40;99.90;;;;;;5060181;28;20455;-71
2021/05/08 02:02:20;;;;;;;27.87;25.00;;;1.30;99.90;;;;;;5060504;28;21091;-71
2021/05/08 02:04:48;;;;;;;29.57;26.30;;;1.30;99.90;;;;;;5059643;28;20549;-72
2021/05/08 02:07:14;;;;;;;30.77;27.37;;;1.30;99.90;;;;;;5057377;28;20498;-72
2021/05/08 02:09:41;;;;;;;28.10;25.40;;;1.30;99.90;;;;;;5062383;28;20480;-73
2021/05/08 02:12:07;;;;;;;29.27;25.90;;;1.30;99.90;;;;;;5053192;28;20493;-72
2021/05/08 02:14:36;;;;;;;27.23;24.93;;;1.20;99.90;;;;;;5060372;28;22333;-71
2021/05/08 02:17:02;;;;;;;29.10;26.33;;;1.20;99.90;;;;;;5067389;28;20576;-72
2021/05/08 02:19:29;;;;;;;28.57;25.63;;;1.30;99.90;;;;;;5064831;28;20473;-72
2021/05/08 02:21:57;;;;;;;30.07;26.90;;;1.30;99.90;;;;;;5060846;28;20467;-73
2021/05/08 02:24:23;;;;;;;32.13;28.83;;;1.30;99.90;;;;;;5062590;28;20846;-72
2021/05/08 02:26:50;;;;;;;38.80;29.37;;;1.40;99.90;;;;;;5059360;28;20455;-73
2021/05/08 02:29:16;;;;;;;32.07;28.77;;;1.40;99.90;;;;;;5060328;28;20527;-73
2021/05/08 02:31:43;;;;;;;30.90;27.73;;;1.60;99.90;;;;;;5060378;28;20459;-73
2021/05/08 02:34:09;;;;;;;30.97;27.93;;;1.70;99.90;;;;;;5062212;28;20454;-72
2021/05/08 02:36:36;;;;;;;29.67;26.77;;;1.90;99.90;;;;;;5066292;28;20836;-73
2021/05/08 02:39:02;;;;;;;28.77;25.83;;;2.00;99.90;;;;;;5059323;28;20619;-73
2021/05/08 02:41:29;;;;;;;28.77;25.40;;;2.00;99.90;;;;;;5062024;28;20466;-72
2021/05/08 02:43:55;;;;;;;29.77;26.97;;;1.90;99.90;;;;;;5066046;28;20486;-73
2021/05/08 02:46:21;;;;;;;27.80;25.37;;;1.90;99.90;;;;;;5069010;28;20474;-72
2021/05/08 02:48:49;;;;;;;29.23;26.10;;;1.90;99.90;;;;;;5062143;28;20459;-71
2021/05/08 02:51:16;;;;;;;29.33;25.60;;;1.90;99.90;;;;;;5065478;28;20458;-73
2021/05/08 02:53:43;;;;;;;28.63;26.13;;;1.90;99.90;;;;;;5065347;28;20470;-74
2021/05/08 02:56:09;;;;;;;28.23;25.53;;;2.00;99.90;;;;;;5059039;28;20569;-71
2021/05/08 02:58:36;;;;;;;29.97;26.10;;;2.10;99.90;;;;;;5061005;28;20494;-72
2021/05/08 03:01:02;;;;;;;30.20;27.17;;;2.20;99.90;;;;;;5065363;28;20489;-71
2021/05/08 03:03:28;;;;;;;31.63;27.97;;;2.20;99.90;;;;;;5061489;28;21025;-72
2021/05/08 03:05:57;;;;;;;34.37;28.30;;;2.40;99.90;;;;;;5066702;28;20473;-71
2021/05/08 03:08:23;;;;;;;47.47;29.40;;;2.60;99.90;;;;;;5059906;28;20466;-72
2021/05/08 03:10:50;;;;;;;38.00;29.23;;;2.80;99.90;;;;;;5063064;28;21004;-71
2021/05/08 03:13:16;;;;;;;36.17;29.23;;;2.80;99.90;;;;;;5067300;28;20558;-73
2021/05/08 03:15:43;;;;;;;32.30;27.90;;;2.90;99.90;;;;;;5064611;28;20847;-73
2021/05/08 03:18:09;;;;;;;36.13;30.87;;;2.90;99.90;;;;;;5063548;28;21023;-73
2021/05/08 03:20:36;;;;;;;42.00;29.93;;;2.90;99.90;;;;;;5059820;28;20459;-72
2021/05/08 03:23:03;;;;;;;31.53;28.00;;;2.90;99.90;;;;;;5064952;28;20463;-71
2021/05/08 03:25:30;;;;;;;29.00;26.23;;;2.80;99.90;;;;;;5060095;28;20570;-72
2021/05/08 03:27:57;;;;;;;31.37;28.13;;;2.70;99.90;;;;;;5060638;28;20474;-73
2021/05/08 03:30:23;;;;;;;31.07;27.73;;;2.50;99.90;;;;;;5061656;28;20463;-73
2021/05/08 03:32:50;;;;;;;30.40;27.47;;;2.50;99.90;;;;;;5064365;28;20474;-73
2021/05/08 03:35:16;;;;;;;35.50;27.90;;;2.40;99.90;;;;;;5062392;28;20459;-72
2021/05/08 03:37:43;;;;;;;31.77;28.33;;;2.30;99.90;;;;;;5061959;28;20486;-72
2021/05/08 03:40:11;;;;;;;30.17;27.07;;;2.20;99.90;;;;;;5061101;28;20476;-71
2021/05/08 03:42:38;;;;;;;32.47;29.10;;;2.20;99.90;;;;;;5062865;28;20505;-72
2021/05/08 03:45:06;;;;;;;31.73;28.13;;;2.20;99.90;;;;;;5060798;28;20501;-73
2021/05/08 03:47:32;;;;;;;33.87;30.43;;;2.20;99.90;;;;;;5060927;28;20496;-73
2021/05/08 03:49:59;;;;;;;31.73;28.50;;;2.20;99.90;;;;;;5057300;28;20464;-72
2021/05/08 03:52:26;;;;;;;40.23;27.80;;;2.30;99.90;;;;;;5062313;28;20459;-71
2021/05/08 03:54:54;;;;;;;36.63;28.63;;;2.40;99.90;;;;;;5058918;28;20458;-73
2021/05/08 03:57:21;;;;;;;32.90;29.60;;;2.50;99.90;;;;;;5063764;28;20501;-72
2021/05/08 03:59:48;;;;;;;37.80;28.87;;;2.60;99.90;;;;;;5063389;28;20497;-73
2021/05/08 04:02:15;;;;;;;36.97;30.37;;;2.60;99.90;;;;;;5066000;28;20455;-71
2021/05/08 04:04:42;;;;;;;31.57;28.67;;;2.70;99.90;;;;;;5057630;28;20463;-73
2021/05/08 04:07:09;;;;;;;30.53;27.47;;;2.70;99.90;;;;;;5058619;28;20459;-73
2021/05/08 04:09:35;;;;;;;36.83;30.63;;;2.70;99.90;;;;;;5065441;28;20455;-71
2021/05/08 04:12:01;;;;;;;33.80;30.20;;;2.80;99.90;;;;;;5063761;28;20832;-71
2021/05/08 04:14:29;;;;;;;34.60;29.87;;;2.90;99.90;;;;;;5064100;28;20467;-72
2021/05/08 04:16:56;;;;;;;31.00;27.80;;;3.10;99.90;;;;;;5058956;28;20462;-73
2021/05/08 04:19:22;;;;;;;40.13;28.90;;;3.20;99.90;;;;;;5062955;28;20605;-73
2021/05/08 04:21:49;;;;;;;32.03;27.17;;;3.30;99.90;;;;;;5058706;28;20510;-71
2021/05/08 04:24:15;;;;;;;39.43;27.07;;;3.40;99.90;;;;;;5056091;28;20481;-72
2021/05/08 04:26:42;;;;;;;31.50;28.10;;;3.50;99.90;;;;;;5065261;28;20537;-72
2021/05/08 04:29:08;;;;;;;36.63;28.23;;;3.60;99.90;;;;;;5064815;28;20467;-71
2021/05/08 04:31:37;;;;;;;32.37;28.67;;;3.70;99.90;;;;;;5060886;28;20463;-73
2021/05/08 04:34:03;;;;;;;32.40;27.23;;;3.70;99.90;;;;;;5062719;28;20833;-72
2021/05/08 04:36:29;;;;;;;37.53;28.27;;;3.80;99.90;;;;;;5061412;28;20464;-72
2021/05/08 04:38:56;;;;;;;33.97;27.70;;;3.70;99.90;;;;;;5058389;28;20494;-72
2021/05/08 04:41:22;;;;;;;38.73;28.77;;;3.80;99.90;;;;;;5066690;28;20516;-72
2021/05/08 04:43:49;;;;;;;37.97;27.50;;;3.80;99.90;;;;;;5057230;28;20495;-73
2021/05/08 04:46:16;;;;;;;30.97;27.23;;;3.80;99.90;;;;;;5060424;28;20474;-71
2021/05/08 04:48:45;;;;;;;34.13;28.03;;;3.90;99.90;;;;;;5055294;28;20483;-72
2021/05/08 04:51:13;;;;;;;29.07;26.07;;;3.90;99.90;;;;;;5064698;28;20463;-72
2021/05/08 04:53:40;;;;;;;30.23;27.00;;;4.00;99.90;;;;;;5062605;28;20463;-72
2021/05/08 04:56:06;;;;;;;32.80;26.33;;;4.00;99.90;;;;;;5057723;28;20456;-72
2021/05/08 04:58:33;;;;;;;29.97;27.07;;;4.20;99.90;;;;;;5058584;28;20487;-71
2021/05/08 05:00:59;;;;;;;31.47;27.73;;;4.40;99.90;;;;;;5057988;28;20467;-72
2021/05/08 05:03:25;;;;;;;33.10;25.70;;;4.50;99.90;;;;;;5066446;28;20817;-73
2021/05/08 05:05:53;;;;;;;27.87;25.07;;;4.60;99.90;;;;;;5060162;28;20957;-75
2021/05/08 05:08:20;;;;;;;28.00;25.10;;;4.70;99.90;;;;;;5057736;28;20464;-73
2021/05/08 05:10:50;;;;;;;35.07;25.10;;;4.80;99.90;;;;;;5060345;28;20512;-72
2021/05/08 05:13:16;;;;;;;29.20;24.53;;;4.80;99.90;;;;;;5056255;28;20460;-72
2021/05/08 05:15:42;;;;;;;32.23;25.07;;;4.90;99.90;;;;;;5058138;28;20973;-73
2021/05/08 05:18:08;;;;;;;26.40;22.33;;;5.00;99.90;;;;;;5061390;28;20538;-74
2021/05/08 05:20:35;;;;;;;26.30;23.43;;;5.20;99.90;;;;;;5056113;28;20482;-72
2021/05/08 05:23:03;;;;;;;26.00;23.53;;;5.40;99.90;;;;;;5057189;28;20463;-73
2021/05/08 05:25:30;;;;;;;24.00;21.80;;;5.50;99.90;;;;;;5063432;28;20451;-73
2021/05/08 05:27:56;;;;;;;25.93;23.40;;;5.70;99.90;;;;;;5054364;28;20902;-75
2021/05/08 05:30:24;;;;;;;23.93;21.67;;;5.90;99.90;;;;;;5061030;28;20471;-75
2021/05/08 05:32:50;;;;;;;24.03;22.00;;;6.00;99.90;;;;;;5062782;28;20471;-74
2021/05/08 05:35:16;;;;;;;21.40;19.67;;;6.20;99.90;;;;;;5057280;28;20499;-72
2021/05/08 05:37:43;;;;;;;23.73;21.77;;;6.30;99.90;;;;;;5054015;28;20572;-75
2021/05/08 05:40:11;;;;;;;23.13;21.23;;;6.50;99.90;;;;;;5061536;28;20813;-73
2021/05/08 05:42:39;;;;;;;24.10;21.23;;;6.50;99.90;;;;;;5066300;28;20464;-74
2021/05/08 05:45:07;;;;;;;21.93;19.83;;;6.70;99.90;;;;;;5055400;28;21069;-73
2021/05/08 05:47:33;;;;;;;24.07;21.87;;;6.70;99.90;;;;;;5060891;28;20472;-75
2021/05/08 05:50:00;;;;;;;23.47;21.67;;;6.90;99.90;;;;;;5058051;28;20463;-74
2021/05/08 05:52:27;;;;;;;21.80;20.10;;;6.90;99.90;;;;;;5062497;28;20559;-75
2021/05/08 05:54:54;;;;;;;23.03;21.30;;;7.00;99.90;;;;;;5058474;28;20453;-73
2021/05/08 05:57:21;;;;;;;22.00;20.10;;;7.10;99.90;;;;;;5060556;28;21002;-75
2021/05/08 05:59:47;;;;;;;23.30;21.30;;;7.20;99.90;;;;;;5056903;28;20460;-74
2021/05/08 06:02:14;;;;;;;22.20;20.27;;;7.30;99.90;;;;;;5060937;28;20463;-73
2021/05/08 06:04:41;;;;;;;22.43;20.60;;;7.40;99.90;;;;;;5059847;28;20496;-75
2021/05/08 06:07:07;;;;;;;28.30;21.13;;;7.50;99.90;;;;;;5062325;28;20474;-76
2021/05/08 06:09:34;;;;;;;22.83;20.83;;;7.70;99.90;;;;;;5061648;28;20499;-72
2021/05/08 06:12:01;;;;;;;30.27;20.27;;;7.80;99.90;;;;;;5062382;28;20463;-75
2021/05/08 06:14:28;;;;;;;22.80;21.10;;;8.00;99.90;;;;;;5059539;28;20492;-74
2021/05/08 06:16:56;;;;;;;23.40;21.17;;;8.00;99.90;;;;;;5065063;28;20960;-75
2021/05/08 06:19:23;;;;;;;22.67;20.70;;;8.20;99.90;;;;;;5063080;28;20497;-75
2021/05/08 06:21:50;;;;;;;22.03;20.20;;;8.30;99.90;;;;;;5067449;28;20976;-73
2021/05/08 06:24:16;;;;;;;21.40;19.50;;;8.40;99.90;;;;;;5054797;28;20474;-75
2021/05/08 06:26:42;;;;;;;20.90;19.03;;;8.60;99.90;;;;;;5062706;28;20474;-73
2021/05/08 06:29:09;;;;;;;21.73;19.90;;;8.70;99.90;;;;;;5062874;28;20466;-73
2021/05/08 06:31:36;;;;;;;20.27;18.77;;;8.90;99.90;;;;;;5063214;28;20556;-75
2021/05/08 06:34:03;;;;;;;20.97;19.43;;;9.00;99.90;;;;;;5060148;28;20469;-74
2021/05/08 06:36:29;;;;;;;19.93;18.23;;;9.10;99.90;;;;;;5064748;28;20460;-74
2021/05/08 06:38:56;;;;;;;20.20;18.67;;;9.20;99.90;;;;;;5062005;28;20520;-76
2021/05/08 06:41:23;;;;;;;19.87;18.47;;;9.20;99.90;;;;;;5058555;28;20461;-74
2021/05/08 06:43:49;;;;;;;21.63;20.00;;;9.30;99.90;;;;;;5060009;28;20815;-76
2021/05/08 06:46:16;;;;;;;20.80;19.13;;;9.50;99.90;;;;;;5065564;28;20516;-73
2021/05/08 06:48:43;;;;;;;20.93;19.30;;;9.60;99.90;;;;;;5060914;28;20455;-72
2021/05/08 06:51:09;;;;;;;20.60;18.83;;;9.90;99.90;;;;;;5057969;28;20458;-74
2021/05/08 06:53:36;;;;;;;22.70;20.50;;;10.40;99.90;;;;;;5052871;28;20475;-74
2021/05/08 06:56:03;;;;;;;20.40;18.60;;;10.50;99.90;;;;;;5053490;28;21042;-74
2021/05/08 06:58:29;;;;;;;21.90;19.70;;;10.60;99.90;;;;;;5060859;28;20486;-74
2021/05/08 07:00:56;;;;;;;22.90;20.60;;;10.50;99.90;;;;;;5063305;28;20455;-74
2021/05/08 07:03:22;;;;;;;21.47;19.77;;;10.30;99.90;;;;;;5060204;28;20527;-76
2021/05/08 07:05:50;;;;;;;21.20;19.30;;;10.50;99.90;;;;;;5065092;28;20462;-74
2021/05/08 07:08:16;;;;;;;19.63;17.80;;;10.70;99.90;;;;;;5059961;28;21523;-73
2021/05/08 07:10:44;;;;;;;20.07;18.13;;;10.60;99.90;;;;;;5062007;28;20570;-77
2021/05/08 07:13:11;;;;;;;23.87;19.33;;;10.90;99.90;;;;;;5067226;28;21004;-76
2021/05/08 07:15:38;;;;;;;21.33;19.30;;;10.80;99.90;;;;;;5065695;28;20458;-74
2021/05/08 07:18:06;;;;;;;19.37;17.93;;;10.90;99.90;;;;;;5066666;28;20511;-75
2021/05/08 07:20:34;;;;;;;19.97;18.13;;;11.00;99.90;;;;;;5062457;28;20458;-75
2021/05/08 07:23:03;;;;;;;21.70;18.63;;;10.90;99.90;;;;;;5061797;28;20467;-74
2021/05/08 07:25:29;;;;;;;21.17;19.30;;;11.10;99.90;;;;;;5055079;28;20463;-73
2021/05/08 07:28:08;;;;;;;25.03;21.03;;;11.20;99.90;;;;;;5058342;28;20455;-75
2021/05/08 07:30:34;;;;;;;23.13;19.57;;;11.40;99.90;;;;;;5065096;28;20467;-75
2021/05/08 07:33:01;;;;;;;21.37;19.30;;;11.40;99.90;;;;;;5057954;28;20522;-76
2021/05/08 07:35:28;;;;;;;19.70;18.17;;;11.70;99.90;;;;;;5059434;28;20503;-74
2021/05/08 07:37:55;;;;;;;20.60;18.90;;;12.00;99.90;;;;;;5062808;28;20515;-74
2021/05/08 07:40:22;;;;;;;23.73;17.70;;;12.10;99.90;;;;;;5059436;28;20464;-75
2021/05/08 07:42:48;;;;;;;19.07;17.27;;;12.10;99.90;;;;;;5066420;28;20483;-76
2021/05/08 07:45:15;;;;;;;19.87;18.10;;;11.90;99.90;;;;;;5058516;28;20479;-73
2021/05/08 07:47:42;;;;;;;18.50;16.77;;;12.10;99.90;;;;;;5059831;28;20557;-76
2021/05/08 07:50:09;;;;;;;19.10;17.50;;;12.20;99.90;;;;;;5061655;28;20463;-75
2021/05/08 07:52:37;;;;;;;20.43;18.53;;;12.40;99.90;;;;;;5064884;28;20878;-76
2021/05/08 07:55:05;;;;;;;20.17;18.07;;;12.60;99.90;;;;;;5066066;28;20462;-75
2021/05/08 07:57:32;;;;;;;19.43;17.60;;;12.90;99.90;;;;;;5067186;28;20524;-79
2021/05/08 07:59:58;;;;;;;20.27;18.00;;;13.30;99.90;;;;;;5062167;28;20460;-76
2021/05/08 08:02:25;;;;;;;24.13;17.63;;;13.70;99.90;;;;;;5056713;28;21089;-75
2021/05/08 08:04:51;;;;;;;19.50;17.83;;;13.90;99.90;;;;;;5057944;28;20467;-76
2021/05/08 08:07:17;;;;;;;24.30;18.10;;;14.10;99.90;;;;;;5058659;28;20534;-75
2021/05/08 08:09:44;;;;;;;20.83;18.77;;;14.10;99.90;;;;;;5054742;28;20452;-74
2021/05/08 08:12:11;;;;;;;20.30;18.40;;;14.30;99.90;;;;;;5063042;28;20470;-78
2021/05/08 08:14:38;;;;;;;19.37;17.50;;;14.30;99.90;;;;;;5057533;28;20475;-76
2021/05/08 08:17:05;;;;;;;19.97;18.27;;;14.30;99.90;;;;;;5058249;28;20464;-75
2021/05/08 08:19:32;;;;;;;21.33;18.20;;;14.40;99.90;;;;;;5056331;28;20498;-74
2021/05/08 08:21:59;;;;;;;20.23;17.70;;;14.70;99.90;;;;;;5058240;28;20462;-75
2021/05/08 08:24:25;;;;;;;19.67;17.70;;;15.00;99.90;;;;;;5056386;28;20458;-76
2021/05/08 08:26:52;;;;;;;20.20;18.17;;;15.10;99.90;;;;;;5057319;28;22707;-76
2021/05/08 08:29:19;;;;;;;19.13;17.10;;;15.10;99.90;;;;;;5063998;28;20463;-78
2021/05/08 08:31:47;;;;;;;18.93;17.23;;;15.60;99.90;;;;;;5056887;28;20962;-75
2021/05/08 08:34:14;;;;;;;18.10;16.47;;;15.90;99.90;;;;;;5059791;28;20459;-76
2021/05/08 08:36:41;;;;;;;17.80;16.03;;;16.10;99.90;;;;;;5063690;28;20458;-76
2021/05/08 08:39:08;;;;;;;18.23;16.70;;;16.10;99.90;;;;;;5057375;28;20976;-76
2021/05/08 08:41:34;;;;;;;17.60;16.30;;;16.00;99.90;;;;;;5061103;28;20474;-75
2021/05/08 08:44:01;;;;;;;18.50;17.30;;;16.00;99.90;;;;;;5059049;28;20490;-76
2021/05/08 08:46:28;;;;;;;18.20;16.60;;;16.00;99.90;;;;;;5061066;28;20470;-76
2021/05/08 08:48:55;;;;;;;17.07;15.83;;;15.90;99.90;;;;;;5062191;28;20463;-78
2021/05/08 08:51:22;;;;;;;18.97;17.67;;;16.10;99.40;;;;;;5063016;28;20505;-75
2021/05/08 08:53:49;;;;;;;17.07;15.60;;;16.30;99.40;;;;;;5055000;28;21045;-77
2021/05/08 08:56:16;;;;;;;17.90;16.23;;;17.00;96.90;;;;;;5053892;28;20571;-75
2021/05/08 08:58:44;;;;;;;18.97;17.20;;;16.70;97.40;;;;;;5061175;28;20482;-75
2021/05/08 09:01:11;;;;;;;17.43;16.20;;;16.80;95.40;;;;;;5060012;28;20865;-75
2021/05/08 09:03:38;;;;;;;18.47;16.50;;;16.90;96.20;;;;;;5056481;28;20617;-77
2021/05/08 09:06:06;;;;;;;17.77;16.60;;;17.50;94.40;;;;;;5059611;28;20873;-78
2021/05/08 09:08:32;;;;;;;16.43;15.37;;;17.90;93.10;;;;;;5057573;28;20459;-76
2021/05/08 09:11:20;;;;;;;16.50;15.50;;;18.10;92.30;;;;;;5054075;28;20958;-78
2021/05/08 09:13:46;;;;;;;17.17;16.10;;;18.60;91.90;;;;;;5063797;28;20936;-77
2021/05/08 09:16:13;;;;;;;17.73;16.47;;;18.80;90.10;;;;;;5064512;28;20490;-75
2021/05/08 09:18:40;;;;;;;17.43;16.33;;;18.80;85.30;;;;;;5060743;28;20536;-76
2021/05/08 09:21:10;;;;;;;17.43;16.30;;;19.10;88.30;;;;;;5062714;28;20468;-76
2021/05/08 09:23:38;;;;;;;16.50;15.50;;;18.80;89.60;;;;;;5056564;28;20451;-77
2021/05/08 09:26:06;;;;;;;17.50;16.00;;;18.90;87.70;;;;;;5057748;28;20999;-77
2021/05/08 09:28:35;;;;;;;16.77;15.87;;;18.90;84.90;;;;;;5059047;28;20875;-77
2021/05/08 09:31:03;;;;;;;16.67;15.67;;;18.60;83.70;;;;;;5060264;28;20543;-76
2021/05/08 09:33:30;;;;;;;16.40;15.40;;;18.70;81.70;;;;;;5062943;28;20547;-76
2021/05/08 09:36:07;;;;;;;17.17;15.77;;;18.70;83.80;;;;;;5061758;28;20973;-76
2021/05/08 09:38:36;;;;;;;16.03;15.03;;;18.90;81.50;;;;;;5058473;28;20483;-75
2021/05/08 09:41:04;;;;;;;16.10;15.17;;;19.50;80.00;;;;;;5058629;28;20948;-76
2021/05/08 09:43:30;;;;;;;17.50;16.20;;;19.30;79.80;;;;;;5057756;28;20541;-75
2021/05/08 09:45:57;;;;;;;16.70;15.63;;;19.10;81.00;;;;;;5062786;28;20463;-79
2021/05/08 09:48:27;;;;;;;17.73;15.70;;;19.10;81.30;;;;;;5061441;28;20467;-76
2021/05/08 09:51:13;;;;;;;17.47;16.17;;;19.60;80.50;;;;;;5061952;28;20452;-76
2021/05/08 09:53:40;;;;;;;16.00;15.10;;;19.70;79.30;;;;;;5063472;28;20467;-81
2021/05/08 09:56:07;;;;;;;16.20;14.90;;;19.90;76.80;;;;;;5062480;28;21008;-78
2021/05/08 09:58:33;;;;;;;15.80;14.80;;;19.80;77.90;;;;;;5061148;28;20511;-76
2021/05/08 10:01:01;;;;;;;16.60;15.50;;;19.80;76.20;;;;;;5063998;28;20540;-78
2021/05/08 10:03:35;;;;;;;16.90;15.10;;;19.80;77.80;;;;;;5060297;28;20524;-78
2021/05/08 10:06:12;;;;;;;18.57;16.17;;;20.10;77.90;;;;;;5064851;28;20482;-76
2021/05/08 10:08:40;;;;;;;16.73;15.77;;;19.70;76.50;;;;;;5061902;28;20462;-77
2021/05/08 10:11:08;;;;;;;17.87;16.03;;;19.40;78.40;;;;;;5064113;28;20459;-77
2021/05/08 10:13:35;;;;;;;21.53;14.90;;;19.40;78.00;;;;;;5058813;28;20470;-76
2021/05/08 10:16:03;;;;;;;17.53;15.93;;;19.20;77.20;;;;;;5061923;28;20466;-76
2021/05/08 10:18:33;;;;;;;17.90;16.40;;;19.30;77.40;;;;;;5060744;28;20490;-77
2021/05/08 10:21:00;;;;;;;16.73;15.57;;;19.70;77.20;;;;;;5059792;28;20497;-77
2021/05/08 10:23:31;;;;;;;15.27;14.23;;;19.70;75.20;;;;;;5057046;28;20462;-77
2021/05/08 10:26:03;;;;;;;15.30;14.50;;;19.40;75.70;;;;;;5057071;28;20470;-80
2021/05/08 10:28:29;;;;;;;15.67;14.60;;;19.80;70.80;;;;;;5059101;28;20517;-80
2021/05/08 10:30:56;;;;;;;17.10;15.70;;;19.70;72.50;;;;;;5057895;28;20463;-77
2021/05/08 10:33:24;;;;;;;15.73;14.80;;;19.50;75.20;;;;;;5050558;28;21092;-80
2021/05/08 10:35:52;;;;;;;16.20;15.00;;;19.70;73.60;;;;;;5058335;28;20634;-76
2021/05/08 10:38:21;;;;;;;15.20;14.30;;;19.80;73.90;;;;;;5051630;28;21176;-81
2021/05/08 10:41:00;;;;;;;15.40;14.60;;;20.00;73.60;;;;;;5057627;28;21023;-78
2021/05/08 10:43:45;;;;;;;15.80;14.20;;;19.90;73.30;;;;;;5056696;28;20854;-76
2021/05/08 10:46:14;;;;;;;15.73;14.83;;;19.50;71.60;;;;;;5059060;28;20921;-77
2021/05/08 10:49:04;;;;;;;16.37;14.90;;;19.30;71.20;;;;;;5057847;28;20516;-79
2021/05/08 10:51:59;;;;;;;16.03;15.13;;;18.40;71.60;;;;;;5064339;28;20458;-76
2021/05/08 10:54:55;;;;;;;15.57;14.67;;;18.80;73.40;;;;;;5064128;28;20494;-77
2021/05/08 10:57:24;;;;;;;15.50;14.67;;;18.30;73.70;;;;;;5067818;28;21090;-79
2021/05/08 11:00:26;;;;;;;15.47;14.67;;;18.00;74.00;;;;;;5064605;28;20493;-76
2021/05/08 11:03:01;;;;;;;15.13;14.30;;;17.80;75.90;;;;;;5063247;28;20472;-77
2021/05/08 11:05:30;;;;;;;15.50;14.60;;;18.40;81.70;;;;;;5061812;28;20466;-77
2021/05/08 11:07:58;;;;;;;15.87;14.97;;;18.10;83.10;;;;;;5062388;28;20492;-76
2021/05/08 11:10:37;;;;;;;15.73;14.60;;;17.60;79.70;;;;;;5056989;28;20949;-77
2021/05/08 11:13:09;;;;;;;14.40;13.67;;;17.00;84.90;;;;;;5059723;28;20476;-76
2021/05/08 11:16:12;;;;;;;15.00;14.10;;;16.90;84.10;;;;;;5065370;28;20450;-80
2021/05/08 11:18:41;;;;;;;14.70;14.00;;;17.00;83.90;;;;;;5065402;28;20495;-76
2021/05/08 11:21:39;;;;;;;15.40;14.60;;;17.60;85.00;;;;;;5066427;28;20461;-76
2021/05/08 11:24:10;;;;;;;14.60;13.80;;;17.60;85.60;;;;;;5063154;28;20467;-77
2021/05/08 11:26:38;;;;;;;13.57;12.97;;;17.50;87.50;;;;;;5065926;28;21095;-80
2021/05/08 11:29:08;;;;;;;15.20;14.40;;;17.40;86.90;;;;;;5059333;28;20460;-77
2021/05/08 11:31:36;;;;;;;15.20;14.00;;;16.90;87.70;;;;;;5063862;28;20469;-76
2021/05/08 11:34:08;;;;;;;14.47;13.50;;;16.70;86.50;;;;;;5065497;28;20462;-79
2021/05/08 11:36:46;;;;;;;16.50;15.17;;;16.50;91.70;;;;;;5063521;28;20468;-76
2021/05/08 11:39:15;;;;;;;14.40;13.70;;;16.30;95.70;;;;;;5063930;28;20578;-76
2021/05/08 11:41:42;;;;;;;15.13;14.33;;;15.60;94.70;;;;;;5060939;28;20467;-77
2021/05/08 11:44:09;;;;;;;14.90;14.20;;;15.60;96.40;;;;;;5061621;28;20475;-78
2021/05/08 11:46:35;;;;;;;15.13;14.43;;;15.40;96.60;;;;;;5063051;28;20463;-80
2021/05/08 11:49:03;;;;;;;15.00;14.27;;;15.30;98.50;;;;;;5066258;28;20459;-76
2021/05/08 11:51:29;;;;;;;17.07;16.07;;;15.20;99.90;;;;;;5061609;28;21015;-73
2021/05/08 11:54:09;;;;;;;16.60;15.70;;;15.20;99.90;;;;;;5065515;28;20514;-73
2021/05/08 11:56:37;;;;;;;17.60;16.57;;;15.40;99.90;;;;;;5062271;28;20496;-75
2021/05/08 11:59:05;;;;;;;18.50;17.43;;;15.60;99.90;;;;;;5062617;28;21039;-75
2021/05/08 12:01:32;;;;;;;17.20;16.20;;;15.60;99.90;;;;;;5065979;28;20506;-74
2021/05/08 12:04:00;;;;;;;18.13;16.80;;;15.40;99.90;;;;;;5057546;28;20467;-75
2021/05/08 12:06:27;;;;;;;17.27;16.37;;;15.30;99.90;;;;;;5065954;28;20706;-74
2021/05/08 12:08:56;;;;;;;17.87;15.77;;;15.20;99.90;;;;;;5062214;28;20455;-74
2021/05/08 12:11:24;;;;;;;15.97;15.10;;;15.20;99.90;;;;;;5060521;28;20459;-75
2021/05/08 12:13:51;;;;;;;16.60;15.43;;;15.30;99.90;;;;;;5056201;28;20529;-75
2021/05/08 12:16:18;;;;;;;15.97;15.10;;;15.20;99.90;;;;;;5065989;28;20455;-74
2021/05/08 12:18:45;;;;;;;17.83;16.60;;;15.30;99.90;;;;;;5065442;28;20849;-74
2021/05/08 12:21:14;;;;;;;16.57;15.37;;;15.20;99.90;;;;;;5062004;28;20546;-76
2021/05/08 12:23:40;;;;;;;16.33;15.00;;;15.00;99.90;;;;;;5060364;28;21109;-75
2021/05/08 12:26:13;;;;;;;15.60;14.50;;;15.00;99.90;;;;;;5061944;28;20463;-74
2021/05/08 12:28:42;;;;;;;16.37;15.57;;;15.10;99.90;;;;;;5059109;28;20456;-73
2021/05/08 12:31:29;;;;;;;16.80;15.70;;;15.10;99.90;;;;;;5064977;28;20468;-74
2021/05/08 12:33:58;;;;;;;16.50;15.57;;;14.90;99.90;;;;;;5063480;28;20498;-74
2021/05/08 12:36:26;;;;;;;17.80;16.80;;;14.90;99.90;;;;;;5065099;28;20455;-75
2021/05/08 12:38:54;;;;;;;19.10;17.93;;;15.00;99.90;;;;;;5058927;28;20518;-76